Terminal Aerodrome Forecast
Issued by NWS

Home | Current Version | Previous Version | Text Only | Print | Product List | Glossary On
Versions: 1 2 3 4 5 6 7 8 9 10 11 12 13 14 15 16 17 18 19 20 21 22 23
604
FTUS43 KMQT 262326
TAFSAW
TAF
KSAW 262326Z 2700/2724 28012G25KT 6SM -SHSN BLSN BKN035
      TEMPO 2700/2701 BKN025
     FM270100 28012KT P6SM SCT035
     FM270400 29006KT P6SM SKC
     FM271500 19008KT P6SM BKN070
     FM271900 18011G18KT P6SM BKN070
     FM272300 18008KT P6SM BKN120=

USA.gov is the U.S. government's official web portal to all federal, state and local government web resources and services.